sensor_id;sensor_type;location;lat;lon;timestamp;temperature;humidity
6443;DHT22;3254;47.372;8.512;2022-08-01T00:01:51;20.10;1.00
6443;DHT22;3254;47.372;8.512;2022-08-01T00:04:17;20.10;1.00
6443;DHT22;3254;47.372;8.512;2022-08-01T00:06:42;20.10;1.00
6443;DHT22;3254;47.372;8.512;2022-08-01T00:09:08;20.00;1.00
6443;DHT22;3254;47.372;8.512;2022-08-01T00:11:33;19.90;1.00
6443;DHT22;3254;47.372;8.512;2022-08-01T00:13:59;19.80;1.00
6443;DHT22;3254;47.372;8.512;2022-08-01T00:16:25;19.70;1.00
6443;DHT22;3254;47.372;8.512;2022-08-01T00:18:51;19.70;1.00
6443;DHT22;3254;47.372;8.512;2022-08-01T00:21:17;19.70;1.00
6443;DHT22;3254;47.372;8.512;2022-08-01T00:23:43;19.50;1.00
6443;DHT22;3254;47.372;8.512;2022-08-01T00:26:11;19.50;1.00
6443;DHT22;3254;47.372;8.512;2022-08-01T00:28:37;19.40;1.00
6443;DHT22;3254;47.372;8.512;2022-08-01T00:31:03;19.30;1.00
6443;DHT22;3254;47.372;8.512;2022-08-01T00:33:28;19.30;1.00
6443;DHT22;3254;47.372;8.512;2022-08-01T00:35:54;19.40;1.00
6443;DHT22;3254;47.372;8.512;2022-08-01T00:38:20;19.40;1.00
6443;DHT22;3254;47.372;8.512;2022-08-01T00:40:46;19.50;1.00
6443;DHT22;3254;47.372;8.512;2022-08-01T00:43:11;19.60;1.00
6443;DHT22;3254;47.372;8.512;2022-08-01T00:45:37;19.50;1.00
6443;DHT22;3254;47.372;8.512;2022-08-01T00:48:03;19.60;1.00
6443;DHT22;3254;47.372;8.512;2022-08-01T00:50:29;19.60;1.00
6443;DHT22;3254;47.372;8.512;2022-08-01T00:52:55;19.60;1.00
6443;DHT22;3254;47.372;8.512;2022-08-01T00:55:21;19.60;1.00
6443;DHT22;3254;47.372;8.512;2022-08-01T00:57:47;19.60;1.00
6443;DHT22;3254;47.372;8.512;2022-08-01T01:00:14;19.60;1.00
6443;DHT22;3254;47.372;8.512;2022-08-01T01:02:40;19.60;1.00
6443;DHT22;3254;47.372;8.512;2022-08-01T01:05:06;19.50;1.00
6443;DHT22;3254;47.372;8.512;2022-08-01T01:10:28;19.70;1.00
6443;DHT22;3254;47.372;8.512;2022-08-01T01:13:01;19.70;1.00
6443;DHT22;3254;47.372;8.512;2022-08-01T01:15:34;19.70;1.00
6443;DHT22;3254;47.372;8.512;2022-08-01T01:18:05;19.70;1.00
6443;DHT22;3254;47.372;8.512;2022-08-01T01:20:43;19.70;1.00
6443;DHT22;3254;47.372;8.512;2022-08-01T01:31:19;19.50;1.00
6443;DHT22;3254;47.372;8.512;2022-08-01T01:33:47;19.40;1.00
6443;DHT22;3254;47.372;8.512;2022-08-01T01:36:14;19.30;1.00
6443;DHT22;3254;47.372;8.512;2022-08-01T01:38:43;19.20;1.00
6443;DHT22;3254;47.372;8.512;2022-08-01T01:41:14;19.20;1.00
6443;DHT22;3254;47.372;8.512;2022-08-01T01:43:41;19.30;1.00
6443;DHT22;3254;47.372;8.512;2022-08-01T01:46:09;19.30;1.00
6443;DHT22;3254;47.372;8.512;2022-08-01T01:48:36;19.30;1.00
6443;DHT22;3254;47.372;8.512;2022-08-01T01:51:03;19.40;1.00
6443;DHT22;3254;47.372;8.512;2022-08-01T01:53:31;19.40;1.00
6443;DHT22;3254;47.372;8.512;2022-08-01T01:55:59;19.40;1.00
6443;DHT22;3254;47.372;8.512;2022-08-01T01:58:26;19.30;1.00
6443;DHT22;3254;47.372;8.512;2022-08-01T02:00:53;19.20;1.00
6443;DHT22;3254;47.372;8.512;2022-08-01T02:03:21;19.10;1.00
6443;DHT22;3254;47.372;8.512;2022-08-01T02:05:48;19.00;1.00
6443;DHT22;3254;47.372;8.512;2022-08-01T02:08:16;19.00;1.00
6443;DHT22;3254;47.372;8.512;2022-08-01T02:10:42;19.00;1.00
6443;DHT22;3254;47.372;8.512;2022-08-01T02:13:32;18.80;1.00
6443;DHT22;3254;47.372;8.512;2022-08-01T02:15:58;18.90;1.00
6443;DHT22;3254;47.372;8.512;2022-08-01T02:18:25;18.80;1.00
6443;DHT22;3254;47.372;8.512;2022-08-01T02:20:52;18.80;1.00
6443;DHT22;3254;47.372;8.512;2022-08-01T02:23:20;18.70;1.00
6443;DHT22;3254;47.372;8.512;2022-08-01T02:25:50;18.70;1.00
6443;DHT22;3254;47.372;8.512;2022-08-01T02:28:22;18.80;1.00
6443;DHT22;3254;47.372;8.512;2022-08-01T02:30:54;18.80;1.00
6443;DHT22;3254;47.372;8.512;2022-08-01T02:33:27;18.80;1.00
6443;DHT22;3254;47.372;8.512;2022-08-01T02:35:58;18.70;1.00
6443;DHT22;3254;47.372;8.512;2022-08-01T02:38:27;18.60;1.00
6443;DHT22;3254;47.372;8.512;2022-08-01T02:40:56;18.60;1.00
6443;DHT22;3254;47.372;8.512;2022-08-01T02:43:26;18.60;1.00
6443;DHT22;3254;47.372;8.512;2022-08-01T02:45:54;18.70;1.00
6443;DHT22;3254;47.372;8.512;2022-08-01T02:48:21;18.70;1.00
6443;DHT22;3254;47.372;8.512;2022-08-01T02:50:49;18.70;1.00
6443;DHT22;3254;47.372;8.512;2022-08-01T02:53:19;18.70;1.00
6443;DHT22;3254;47.372;8.512;2022-08-01T02:55:46;18.70;1.00
6443;DHT22;3254;47.372;8.512;2022-08-01T02:58:15;18.60;1.00
6443;DHT22;3254;47.372;8.512;2022-08-01T03:00:43;18.70;1.00
6443;DHT22;3254;47.372;8.512;2022-08-01T03:03:10;18.70;1.00
6443;DHT22;3254;47.372;8.512;2022-08-01T03:05:37;18.70;1.00
6443;DHT22;3254;47.372;8.512;2022-08-01T03:08:06;18.70;1.00
6443;DHT22;3254;47.372;8.512;2022-08-01T03:10:35;18.70;1.00
6443;DHT22;3254;47.372;8.512;2022-08-01T03:13:02;18.70;1.00
6443;DHT22;3254;47.372;8.512;2022-08-01T03:15:32;18.60;1.00
6443;DHT22;3254;47.372;8.512;2022-08-01T03:17:59;18.60;1.00
6443;DHT22;3254;47.372;8.512;2022-08-01T03:20:27;18.60;1.00
6443;DHT22;3254;47.372;8.512;2022-08-01T03:22:53;18.50;1.00
6443;DHT22;3254;47.372;8.512;2022-08-01T03:25:21;18.50;1.00
6443;DHT22;3254;47.372;8.512;2022-08-01T03:27:56;18.40;1.00
6443;DHT22;3254;47.372;8.512;2022-08-01T03:30:23;18.50;1.00
6443;DHT22;3254;47.372;8.512;2022-08-01T03:32:50;18.40;1.20
6443;DHT22;3254;47.372;8.512;2022-08-01T03:35:16;18.30;2.40
6443;DHT22;3254;47.372;8.512;2022-08-01T03:37:44;18.30;3.00
6443;DHT22;3254;47.372;8.512;2022-08-01T03:40:20;18.30;4.90
6443;DHT22;3254;47.372;8.512;2022-08-01T03:42:48;18.20;4.60
6443;DHT22;3254;47.372;8.512;2022-08-01T03:45:36;18.20;5.70
6443;DHT22;3254;47.372;8.512;2022-08-01T03:48:10;18.20;6.50
6443;DHT22;3254;47.372;8.512;2022-08-01T03:50:42;18.20;7.10
6443;DHT22;3254;47.372;8.512;2022-08-01T03:53:10;18.10;9.10
6443;DHT22;3254;47.372;8.512;2022-08-01T03:55:38;18.10;10.60
6443;DHT22;3254;47.372;8.512;2022-08-01T03:58:05;18.10;11.50
6443;DHT22;3254;47.372;8.512;2022-08-01T04:00:31;18.20;10.00
6443;DHT22;3254;47.372;8.512;2022-08-01T04:02:58;18.20;10.50
6443;DHT22;3254;47.372;8.512;2022-08-01T04:05:24;18.20;11.20
6443;DHT22;3254;47.372;8.512;2022-08-01T04:07:51;18.20;11.60
6443;DHT22;3254;47.372;8.512;2022-08-01T04:10:24;18.20;11.90
6443;DHT22;3254;47.372;8.512;2022-08-01T04:12:51;18.10;12.70
6443;DHT22;3254;47.372;8.512;2022-08-01T04:15:17;18.10;14.20
6443;DHT22;3254;47.372;8.512;2022-08-01T04:17:43;18.10;14.40
6443;DHT22;3254;47.372;8.512;2022-08-01T04:20:09;18.20;14.10
6443;DHT22;3254;47.372;8.512;2022-08-01T04:22:36;18.10;14.70
6443;DHT22;3254;47.372;8.512;2022-08-01T04:25:05;18.20;15.10
6443;DHT22;3254;47.372;8.512;2022-08-01T04:27:38;18.20;15.40
6443;DHT22;3254;47.372;8.512;2022-08-01T04:30:06;18.20;15.80
6443;DHT22;3254;47.372;8.512;2022-08-01T04:32:36;18.20;15.40
6443;DHT22;3254;47.372;8.512;2022-08-01T04:35:06;18.30;15.40
6443;DHT22;3254;47.372;8.512;2022-08-01T04:37:33;18.30;14.50
6443;DHT22;3254;47.372;8.512;2022-08-01T04:40:03;18.30;14.60
6443;DHT22;3254;47.372;8.512;2022-08-01T04:42:31;18.30;13.90
6443;DHT22;3254;47.372;8.512;2022-08-01T04:44:57;18.40;13.10
6443;DHT22;3254;47.372;8.512;2022-08-01T04:47:24;18.40;12.70
6443;DHT22;3254;47.372;8.512;2022-08-01T04:49:50;18.50;13.30
6443;DHT22;3254;47.372;8.512;2022-08-01T04:52:16;18.50;14.20
6443;DHT22;3254;47.372;8.512;2022-08-01T04:54:43;18.50;14.80
6443;DHT22;3254;47.372;8.512;2022-08-01T04:57:09;18.50;15.00
6443;DHT22;3254;47.372;8.512;2022-08-01T04:59:37;18.50;14.50
6443;DHT22;3254;47.372;8.512;2022-08-01T05:02:17;18.70;13.10
6443;DHT22;3254;47.372;8.512;2022-08-01T05:04:44;18.80;11.40
6443;DHT22;3254;47.372;8.512;2022-08-01T05:07:11;18.90;9.50
6443;DHT22;3254;47.372;8.512;2022-08-01T05:09:38;18.90;9.30
6443;DHT22;3254;47.372;8.512;2022-08-01T05:12:05;18.90;9.30
6443;DHT22;3254;47.372;8.512;2022-08-01T05:14:31;19.00;8.90
6443;DHT22;3254;47.372;8.512;2022-08-01T05:17:01;19.00;8.60
6443;DHT22;3254;47.372;8.512;2022-08-01T05:19:29;19.10;7.80
6443;DHT22;3254;47.372;8.512;2022-08-01T05:21:57;19.10;6.70
6443;DHT22;3254;47.372;8.512;2022-08-01T05:24:24;19.30;5.30
6443;DHT22;3254;47.372;8.512;2022-08-01T05:26:49;19.40;3.90
6443;DHT22;3254;47.372;8.512;2022-08-01T05:29:15;19.50;2.80
6443;DHT22;3254;47.372;8.512;2022-08-01T05:31:41;19.60;1.60
6443;DHT22;3254;47.372;8.512;2022-08-01T05:34:06;19.60;1.00
6443;DHT22;3254;47.372;8.512;2022-08-01T05:36:32;19.60;1.00
6443;DHT22;3254;47.372;8.512;2022-08-01T05:38:58;19.80;1.00
6443;DHT22;3254;47.372;8.512;2022-08-01T05:41:23;19.80;1.00
6443;DHT22;3254;47.372;8.512;2022-08-01T05:43:49;19.80;1.00
6443;DHT22;3254;47.372;8.512;2022-08-01T05:46:15;19.90;1.00
6443;DHT22;3254;47.372;8.512;2022-08-01T05:48:41;20.00;1.00
6443;DHT22;3254;47.372;8.512;2022-08-01T05:51:06;20.10;1.00
6443;DHT22;3254;47.372;8.512;2022-08-01T05:53:32;20.20;1.00
6443;DHT22;3254;47.372;8.512;2022-08-01T05:55:59;20.40;1.00
6443;DHT22;3254;47.372;8.512;2022-08-01T05:58:26;20.60;1.00
6443;DHT22;3254;47.372;8.512;2022-08-01T06:00:51;20.70;1.00
6443;DHT22;3254;47.372;8.512;2022-08-01T06:03:18;20.80;1.00
6443;DHT22;3254;47.372;8.512;2022-08-01T06:05:44;20.90;1.00
6443;DHT22;3254;47.372;8.512;2022-08-01T06:08:10;21.10;1.00
6443;DHT22;3254;47.372;8.512;2022-08-01T06:10:35;21.20;1.00
6443;DHT22;3254;47.372;8.512;2022-08-01T06:13:01;21.20;1.00
6443;DHT22;3254;47.372;8.512;2022-08-01T06:15:29;21.20;1.00
6443;DHT22;3254;47.372;8.512;2022-08-01T06:17:55;21.10;1.00
6443;DHT22;3254;47.372;8.512;2022-08-01T06:20:21;21.10;1.00
6443;DHT22;3254;47.372;8.512;2022-08-01T06:22:46;21.10;1.00
6443;DHT22;3254;47.372;8.512;2022-08-01T06:25:12;21.00;1.00
6443;DHT22;3254;47.372;8.512;2022-08-01T06:27:38;21.00;1.00
6443;DHT22;3254;47.372;8.512;2022-08-01T06:30:04;21.20;1.00
6443;DHT22;3254;47.372;8.512;2022-08-01T06:32:32;21.30;1.00
6443;DHT22;3254;47.372;8.512;2022-08-01T06:34:58;21.40;1.00
6443;DHT22;3254;47.372;8.512;2022-08-01T06:37:27;21.60;1.00
6443;DHT22;3254;47.372;8.512;2022-08-01T06:39:53;21.70;1.00
6443;DHT22;3254;47.372;8.512;2022-08-01T06:42:19;21.90;1.00
6443;DHT22;3254;47.372;8.512;2022-08-01T06:44:44;21.90;1.00
6443;DHT22;3254;47.372;8.512;2022-08-01T06:47:10;22.00;1.00
6443;DHT22;3254;47.372;8.512;2022-08-01T06:49:36;22.10;1.00
6443;DHT22;3254;47.372;8.512;2022-08-01T06:52:02;22.20;1.00
6443;DHT22;3254;47.372;8.512;2022-08-01T06:54:28;22.30;1.00
6443;DHT22;3254;47.372;8.512;2022-08-01T06:56:54;22.40;1.00
6443;DHT22;3254;47.372;8.512;2022-08-01T06:59:20;22.40;1.00
6443;DHT22;3254;47.372;8.512;2022-08-01T07:01:45;22.50;1.00
6443;DHT22;3254;47.372;8.512;2022-08-01T07:04:11;22.50;1.00
6443;DHT22;3254;47.372;8.512;2022-08-01T07:06:37;22.60;1.00
6443;DHT22;3254;47.372;8.512;2022-08-01T07:09:02;22.70;1.00
6443;DHT22;3254;47.372;8.512;2022-08-01T07:11:29;22.70;1.00
6443;DHT22;3254;47.372;8.512;2022-08-01T07:13:54;22.80;1.00
6443;DHT22;3254;47.372;8.512;2022-08-01T07:16:21;22.80;1.00
6443;DHT22;3254;47.372;8.512;2022-08-01T07:18:47;22.70;1.00
6443;DHT22;3254;47.372;8.512;2022-08-01T07:21:13;22.90;1.00
6443;DHT22;3254;47.372;8.512;2022-08-01T07:23:38;23.00;1.00
6443;DHT22;3254;47.372;8.512;2022-08-01T07:26:04;23.40;1.00
6443;DHT22;3254;47.372;8.512;2022-08-01T07:28:30;23.80;1.00
6443;DHT22;3254;47.372;8.512;2022-08-01T07:30:56;24.70;1.00
6443;DHT22;3254;47.372;8.512;2022-08-01T07:33:22;26.40;1.00
6443;DHT22;3254;47.372;8.512;2022-08-01T07:35:48;27.60;1.00
6443;DHT22;3254;47.372;8.512;2022-08-01T07:38:14;28.20;1.00
6443;DHT22;3254;47.372;8.512;2022-08-01T07:40:42;28.70;1.00
6443;DHT22;3254;47.372;8.512;2022-08-01T07:43:08;29.70;1.00
6443;DHT22;3254;47.372;8.512;2022-08-01T07:45:34;29.80;1.00
6443;DHT22;3254;47.372;8.512;2022-08-01T07:48:07;30.20;1.00
6443;DHT22;3254;47.372;8.512;2022-08-01T07:50:33;30.40;1.00
6443;DHT22;3254;47.372;8.512;2022-08-01T07:52:59;30.70;1.00
6443;DHT22;3254;47.372;8.512;2022-08-01T07:55:26;30.90;1.00
6443;DHT22;3254;47.372;8.512;2022-08-01T07:57:52;31.00;1.00
6443;DHT22;3254;47.372;8.512;2022-08-01T08:00:18;31.30;1.00
6443;DHT22;3254;47.372;8.512;2022-08-01T08:02:44;31.60;1.00
6443;DHT22;3254;47.372;8.512;2022-08-01T08:05:10;31.90;1.00
6443;DHT22;3254;47.372;8.512;2022-08-01T08:07:36;32.30;1.00
6443;DHT22;3254;47.372;8.512;2022-08-01T08:10:02;32.70;1.00
6443;DHT22;3254;47.372;8.512;2022-08-01T08:12:28;32.30;1.00
6443;DHT22;3254;47.372;8.512;2022-08-01T08:14:54;32.70;1.00
6443;DHT22;3254;47.372;8.512;2022-08-01T08:17:19;33.20;1.00
6443;DHT22;3254;47.372;8.512;2022-08-01T08:19:45;32.60;1.00
6443;DHT22;3254;47.372;8.512;2022-08-01T08:22:10;32.70;1.00
6443;DHT22;3254;47.372;8.512;2022-08-01T08:24:37;33.10;1.00
6443;DHT22;3254;47.372;8.512;2022-08-01T08:27:03;33.20;1.00
6443;DHT22;3254;47.372;8.512;2022-08-01T08:29:30;32.90;1.00
6443;DHT22;3254;47.372;8.512;2022-08-01T08:31:59;32.70;1.00
6443;DHT22;3254;47.372;8.512;2022-08-01T08:34:25;32.90;1.00
6443;DHT22;3254;47.372;8.512;2022-08-01T08:36:52;33.70;1.00
6443;DHT22;3254;47.372;8.512;2022-08-01T08:39:18;34.60;1.00
6443;DHT22;3254;47.372;8.512;2022-08-01T08:41:43;34.60;1.00
6443;DHT22;3254;47.372;8.512;2022-08-01T08:44:09;34.70;1.00
6443;DHT22;3254;47.372;8.512;2022-08-01T08:46:42;34.40;1.00
6443;DHT22;3254;47.372;8.512;2022-08-01T08:49:10;34.50;1.00
6443;DHT22;3254;47.372;8.512;2022-08-01T08:51:39;34.80;1.00
6443;DHT22;3254;47.372;8.512;2022-08-01T08:54:07;34.70;1.00
6443;DHT22;3254;47.372;8.512;2022-08-01T08:56:34;34.30;1.00
6443;DHT22;3254;47.372;8.512;2022-08-01T08:59:01;34.50;1.00
6443;DHT22;3254;47.372;8.512;2022-08-01T09:01:28;35.30;1.00
6443;DHT22;3254;47.372;8.512;2022-08-01T09:03:54;35.90;1.00
6443;DHT22;3254;47.372;8.512;2022-08-01T09:06:19;35.40;1.00
6443;DHT22;3254;47.372;8.512;2022-08-01T09:08:46;35.10;1.00
6443;DHT22;3254;47.372;8.512;2022-08-01T09:11:12;35.60;1.00
6443;DHT22;3254;47.372;8.512;2022-08-01T09:13:38;35.30;1.00
6443;DHT22;3254;47.372;8.512;2022-08-01T09:16:04;35.90;1.00
6443;DHT22;3254;47.372;8.512;2022-08-01T09:18:40;36.80;1.00
6443;DHT22;3254;47.372;8.512;2022-08-01T09:23:50;37.10;1.00
6443;DHT22;3254;47.372;8.512;2022-08-01T09:26:18;36.50;1.00
6443;DHT22;3254;47.372;8.512;2022-08-01T09:28:47;36.20;1.00
6443;DHT22;3254;47.372;8.512;2022-08-01T09:31:17;37.00;1.00
6443;DHT22;3254;47.372;8.512;2022-08-01T09:33:59;36.90;1.00
6443;DHT22;3254;47.372;8.512;2022-08-01T09:36:44;37.60;1.00
6443;DHT22;3254;47.372;8.512;2022-08-01T09:39:13;37.90;1.00
6443;DHT22;3254;47.372;8.512;2022-08-01T09:41:39;38.90;1.00
6443;DHT22;3254;47.372;8.512;2022-08-01T09:44:05;39.10;1.00
6443;DHT22;3254;47.372;8.512;2022-08-01T09:46:31;39.50;1.00
6443;DHT22;3254;47.372;8.512;2022-08-01T09:49:02;39.50;1.00
6443;DHT22;3254;47.372;8.512;2022-08-01T09:51:30;39.00;1.00
6443;DHT22;3254;47.372;8.512;2022-08-01T09:53:55;38.70;1.00
6443;DHT22;3254;47.372;8.512;2022-08-01T09:56:22;37.80;1.00
6443;DHT22;3254;47.372;8.512;2022-08-01T09:58:56;36.80;1.00
6443;DHT22;3254;47.372;8.512;2022-08-01T10:01:23;37.50;1.00
6443;DHT22;3254;47.372;8.512;2022-08-01T10:04:08;37.30;1.00
6443;DHT22;3254;47.372;8.512;2022-08-01T10:06:35;38.00;1.00
6443;DHT22;3254;47.372;8.512;2022-08-01T10:09:02;39.10;1.00
6443;DHT22;3254;47.372;8.512;2022-08-01T10:11:28;39.50;1.00
6443;DHT22;3254;47.372;8.512;2022-08-01T10:13:56;39.60;1.00
6443;DHT22;3254;47.372;8.512;2022-08-01T10:16:25;39.00;1.00
6443;DHT22;3254;47.372;8.512;2022-08-01T10:18:52;37.40;1.00
6443;DHT22;3254;47.372;8.512;2022-08-01T10:21:20;36.70;1.00
6443;DHT22;3254;47.372;8.512;2022-08-01T10:23:46;37.30;1.00
6443;DHT22;3254;47.372;8.512;2022-08-01T10:26:12;36.30;1.00
6443;DHT22;3254;47.372;8.512;2022-08-01T10:28:39;36.00;1.00
6443;DHT22;3254;47.372;8.512;2022-08-01T10:31:07;35.30;1.00
6443;DHT22;3254;47.372;8.512;2022-08-01T10:33:34;36.00;1.00
6443;DHT22;3254;47.372;8.512;2022-08-01T10:36:02;35.30;1.00
6443;DHT22;3254;47.372;8.512;2022-08-01T10:38:28;35.40;1.00
6443;DHT22;3254;47.372;8.512;2022-08-01T10:40:54;37.10;1.00
6443;DHT22;3254;47.372;8.512;2022-08-01T10:43:21;37.40;1.00
6443;DHT22;3254;47.372;8.512;2022-08-01T10:45:47;38.10;1.00
6443;DHT22;3254;47.372;8.512;2022-08-01T10:48:35;39.00;1.00
6443;DHT22;3254;47.372;8.512;2022-08-01T10:51:05;38.10;1.00
6443;DHT22;3254;47.372;8.512;2022-08-01T10:53:31;38.80;1.00
6443;DHT22;3254;47.372;8.512;2022-08-01T10:56:04;38.30;1.00
6443;DHT22;3254;47.372;8.512;2022-08-01T10:58:36;39.20;1.00
6443;DHT22;3254;47.372;8.512;2022-08-01T11:01:24;40.40;1.00
6443;DHT22;3254;47.372;8.512;2022-08-01T11:11:59;38.30;1.00
6443;DHT22;3254;47.372;8.512;2022-08-01T11:14:25;38.00;1.00
6443;DHT22;3254;47.372;8.512;2022-08-01T11:16:51;38.50;1.00
6443;DHT22;3254;47.372;8.512;2022-08-01T11:19:17;39.30;1.00
6443;DHT22;3254;47.372;8.512;2022-08-01T11:27:30;39.00;1.00
6443;DHT22;3254;47.372;8.512;2022-08-01T11:32:55;38.10;1.00
6443;DHT22;3254;47.372;8.512;2022-08-01T11:35:25;37.40;1.00
6443;DHT22;3254;47.372;8.512;2022-08-01T11:37:53;37.60;1.00
6443;DHT22;3254;47.372;8.512;2022-08-01T11:40:22;37.40;1.00
6443;DHT22;3254;47.372;8.512;2022-08-01T11:42:49;37.60;1.00
6443;DHT22;3254;47.372;8.512;2022-08-01T11:45:15;38.20;1.00
6443;DHT22;3254;47.372;8.512;2022-08-01T11:47:45;38.40;1.00
6443;DHT22;3254;47.372;8.512;2022-08-01T11:50:29;37.80;1.00
6443;DHT22;3254;47.372;8.512;2022-08-01T11:52:59;36.70;1.00
6443;DHT22;3254;47.372;8.512;2022-08-01T11:55:27;36.90;1.00
6443;DHT22;3254;47.372;8.512;2022-08-01T11:58:02;37.10;1.00
6443;DHT22;3254;47.372;8.512;2022-08-01T12:00:28;38.60;1.00
6443;DHT22;3254;47.372;8.512;2022-08-01T12:02:58;38.70;1.00
6443;DHT22;3254;47.372;8.512;2022-08-01T12:05:24;38.60;1.00
6443;DHT22;3254;47.372;8.512;2022-08-01T12:07:51;39.30;1.00
6443;DHT22;3254;47.372;8.512;2022-08-01T12:10:21;38.60;1.00
6443;DHT22;3254;47.372;8.512;2022-08-01T12:12:55;39.00;1.00
6443;DHT22;3254;47.372;8.512;2022-08-01T12:15:23;39.60;1.00
6443;DHT22;3254;47.372;8.512;2022-08-01T12:17:50;40.30;1.00
6443;DHT22;3254;47.372;8.512;2022-08-01T12:20:20;40.50;1.00
6443;DHT22;3254;47.372;8.512;2022-08-01T12:22:46;40.70;1.00
6443;DHT22;3254;47.372;8.512;2022-08-01T12:25:17;40.60;1.00
6443;DHT22;3254;47.372;8.512;2022-08-01T12:27:44;41.20;1.00
6443;DHT22;3254;47.372;8.512;2022-08-01T12:30:13;40.40;1.00
6443;DHT22;3254;47.372;8.512;2022-08-01T12:32:41;40.30;1.00
6443;DHT22;3254;47.372;8.512;2022-08-01T12:35:09;40.60;1.00
6443;DHT22;3254;47.372;8.512;2022-08-01T12:37:37;40.80;1.00
6443;DHT22;3254;47.372;8.512;2022-08-01T12:40:14;41.30;1.00
6443;DHT22;3254;47.372;8.512;2022-08-01T12:42:41;38.90;1.00
6443;DHT22;3254;47.372;8.512;2022-08-01T12:45:10;37.40;1.00
6443;DHT22;3254;47.372;8.512;2022-08-01T12:47:37;38.20;1.00
6443;DHT22;3254;47.372;8.512;2022-08-01T12:50:06;38.80;1.00
6443;DHT22;3254;47.372;8.512;2022-08-01T12:52:33;39.30;1.00
6443;DHT22;3254;47.372;8.512;2022-08-01T12:55:03;40.20;1.00
6443;DHT22;3254;47.372;8.512;2022-08-01T12:57:29;41.30;1.00
6443;DHT22;3254;47.372;8.512;2022-08-01T13:00:15;42.20;1.00
6443;DHT22;3254;47.372;8.512;2022-08-01T13:02:44;42.10;1.00
6443;DHT22;3254;47.372;8.512;2022-08-01T13:05:11;41.40;1.00
6443;DHT22;3254;47.372;8.512;2022-08-01T13:07:46;40.80;1.00
6443;DHT22;3254;47.372;8.512;2022-08-01T13:10:13;41.10;1.00
6443;DHT22;3254;47.372;8.512;2022-08-01T13:12:40;41.60;1.00
6443;DHT22;3254;47.372;8.512;2022-08-01T13:17:50;41.40;1.00
6443;DHT22;3254;47.372;8.512;2022-08-01T13:20:24;40.90;1.00
6443;DHT22;3254;47.372;8.512;2022-08-01T13:22:50;42.00;1.00
6443;DHT22;3254;47.372;8.512;2022-08-01T13:25:17;42.00;1.00
6443;DHT22;3254;47.372;8.512;2022-08-01T13:27:44;42.80;1.00
6443;DHT22;3254;47.372;8.512;2022-08-01T13:30:15;43.30;1.00
6443;DHT22;3254;47.372;8.512;2022-08-01T13:32:41;44.00;1.00
6443;DHT22;3254;47.372;8.512;2022-08-01T13:35:10;44.50;1.00
6443;DHT22;3254;47.372;8.512;2022-08-01T13:37:38;45.10;1.00
6443;DHT22;3254;47.372;8.512;2022-08-01T13:40:04;44.00;1.00
6443;DHT22;3254;47.372;8.512;2022-08-01T13:42:30;42.60;1.00
6443;DHT22;3254;47.372;8.512;2022-08-01T13:44:57;42.10;1.00
6443;DHT22;3254;47.372;8.512;2022-08-01T13:47:22;42.20;1.00
6443;DHT22;3254;47.372;8.512;2022-08-01T13:49:48;42.30;1.00
6443;DHT22;3254;47.372;8.512;2022-08-01T13:52:14;42.50;1.00
6443;DHT22;3254;47.372;8.512;2022-08-01T13:54:39;42.40;1.00
6443;DHT22;3254;47.372;8.512;2022-08-01T13:57:05;42.10;1.00
6443;DHT22;3254;47.372;8.512;2022-08-01T13:59:31;42.10;1.00
6443;DHT22;3254;47.372;8.512;2022-08-01T14:01:56;42.30;1.00
6443;DHT22;3254;47.372;8.512;2022-08-01T14:04:22;43.30;1.00
6443;DHT22;3254;47.372;8.512;2022-08-01T14:06:47;43.10;1.00
6443;DHT22;3254;47.372;8.512;2022-08-01T14:09:13;42.60;1.00
6443;DHT22;3254;47.372;8.512;2022-08-01T14:11:42;42.60;1.00
6443;DHT22;3254;47.372;8.512;2022-08-01T14:14:07;42.40;1.00
6443;DHT22;3254;47.372;8.512;2022-08-01T14:16:33;43.40;1.00
6443;DHT22;3254;47.372;8.512;2022-08-01T14:18:59;44.60;1.00
6443;DHT22;3254;47.372;8.512;2022-08-01T14:21:25;45.90;1.00
6443;DHT22;3254;47.372;8.512;2022-08-01T14:23:50;46.20;1.00
6443;DHT22;3254;47.372;8.512;2022-08-01T14:26:16;44.70;1.00
6443;DHT22;3254;47.372;8.512;2022-08-01T14:28:42;44.20;1.00
6443;DHT22;3254;47.372;8.512;2022-08-01T14:31:07;45.70;1.00
6443;DHT22;3254;47.372;8.512;2022-08-01T14:33:33;46.80;1.00
6443;DHT22;3254;47.372;8.512;2022-08-01T14:35:59;46.40;1.00
6443;DHT22;3254;47.372;8.512;2022-08-01T14:38:25;43.70;1.00
6443;DHT22;3254;47.372;8.512;2022-08-01T14:40:50;41.70;1.00
6443;DHT22;3254;47.372;8.512;2022-08-01T14:43:20;41.00;1.00
6443;DHT22;3254;47.372;8.512;2022-08-01T14:45:46;41.20;1.00
6443;DHT22;3254;47.372;8.512;2022-08-01T14:48:17;42.30;1.00
6443;DHT22;3254;47.372;8.512;2022-08-01T14:50:43;42.90;1.00
6443;DHT22;3254;47.372;8.512;2022-08-01T14:53:09;41.90;1.00
6443;DHT22;3254;47.372;8.512;2022-08-01T14:55:35;41.30;1.00
6443;DHT22;3254;47.372;8.512;2022-08-01T14:58:01;40.60;1.00
6443;DHT22;3254;47.372;8.512;2022-08-01T15:00:26;40.80;1.00
6443;DHT22;3254;47.372;8.512;2022-08-01T15:02:52;41.00;1.00
6443;DHT22;3254;47.372;8.512;2022-08-01T15:05:17;40.30;1.00
6443;DHT22;3254;47.372;8.512;2022-08-01T15:07:43;40.20;1.00
6443;DHT22;3254;47.372;8.512;2022-08-01T15:10:09;41.00;1.00
6443;DHT22;3254;47.372;8.512;2022-08-01T15:12:35;40.20;1.00
6443;DHT22;3254;47.372;8.512;2022-08-01T15:15:01;40.20;1.00
6443;DHT22;3254;47.372;8.512;2022-08-01T15:17:28;39.10;1.00
6443;DHT22;3254;47.372;8.512;2022-08-01T15:19:56;38.00;1.00
6443;DHT22;3254;47.372;8.512;2022-08-01T15:22:23;38.00;1.00
6443;DHT22;3254;47.372;8.512;2022-08-01T15:24:51;38.80;1.00
6443;DHT22;3254;47.372;8.512;2022-08-01T15:27:18;39.30;1.00
6443;DHT22;3254;47.372;8.512;2022-08-01T15:29:44;39.20;1.00
6443;DHT22;3254;47.372;8.512;2022-08-01T15:32:10;38.30;1.00
6443;DHT22;3254;47.372;8.512;2022-08-01T15:34:37;38.00;1.00
6443;DHT22;3254;47.372;8.512;2022-08-01T15:37:04;37.70;1.00
6443;DHT22;3254;47.372;8.512;2022-08-01T15:39:30;37.50;1.00
6443;DHT22;3254;47.372;8.512;2022-08-01T15:42:04;37.40;1.00
6443;DHT22;3254;47.372;8.512;2022-08-01T15:44:30;37.00;1.00
6443;DHT22;3254;47.372;8.512;2022-08-01T15:46:55;36.30;1.00
6443;DHT22;3254;47.372;8.512;2022-08-01T15:49:21;35.30;1.00
6443;DHT22;3254;47.372;8.512;2022-08-01T15:51:48;34.70;1.00
6443;DHT22;3254;47.372;8.512;2022-08-01T15:54:15;34.50;1.00
6443;DHT22;3254;47.372;8.512;2022-08-01T15:56:41;34.40;1.00
6443;DHT22;3254;47.372;8.512;2022-08-01T15:59:07;34.70;1.00
6443;DHT22;3254;47.372;8.512;2022-08-01T16:01:33;34.80;1.00
6443;DHT22;3254;47.372;8.512;2022-08-01T16:03:59;34.40;1.00
6443;DHT22;3254;47.372;8.512;2022-08-01T16:06:25;34.10;1.00
6443;DHT22;3254;47.372;8.512;2022-08-01T16:08:50;34.40;1.00
6443;DHT22;3254;47.372;8.512;2022-08-01T16:11:17;35.00;1.00
6443;DHT22;3254;47.372;8.512;2022-08-01T16:13:43;35.20;1.00
6443;DHT22;3254;47.372;8.512;2022-08-01T16:16:11;34.90;1.00
6443;DHT22;3254;47.372;8.512;2022-08-01T16:18:37;34.70;1.00
6443;DHT22;3254;47.372;8.512;2022-08-01T16:21:03;34.10;1.00
6443;DHT22;3254;47.372;8.512;2022-08-01T16:23:29;33.70;1.00
6443;DHT22;3254;47.372;8.512;2022-08-01T16:25:54;33.50;1.00
6443;DHT22;3254;47.372;8.512;2022-08-01T16:28:20;34.20;1.00
6443;DHT22;3254;47.372;8.512;2022-08-01T16:30:46;35.10;1.00
6443;DHT22;3254;47.372;8.512;2022-08-01T16:33:12;35.40;1.00
6443;DHT22;3254;47.372;8.512;2022-08-01T16:35:38;35.40;1.00
6443;DHT22;3254;47.372;8.512;2022-08-01T16:38:05;35.10;1.00
6443;DHT22;3254;47.372;8.512;2022-08-01T16:40:32;35.20;1.00
6443;DHT22;3254;47.372;8.512;2022-08-01T16:42:58;35.00;1.00
6443;DHT22;3254;47.372;8.512;2022-08-01T16:45:24;34.40;1.00
6443;DHT22;3254;47.372;8.512;2022-08-01T16:47:50;34.00;1.00
6443;DHT22;3254;47.372;8.512;2022-08-01T16:50:16;33.50;1.00
6443;DHT22;3254;47.372;8.512;2022-08-01T16:52:41;32.90;1.00